createdAt,value
2022-09-02T00:01:33.623Z,82.70
2022-09-02T00:04:03.891Z,82.32
2022-09-02T00:06:31.604Z,82.98
2022-09-02T00:09:00.052Z,83.38
2022-09-02T00:11:30.942Z,84.42
2022-09-02T00:13:59.166Z,84.02
2022-09-02T00:16:26.420Z,84.51
2022-09-02T00:18:53.787Z,84.87
2022-09-02T00:21:21.275Z,84.36
2022-09-02T00:23:49.606Z,84.62
2022-09-02T00:26:17.672Z,85.04
2022-09-02T00:28:51.038Z,84.96
2022-09-02T00:31:25.239Z,85.41
2022-09-02T00:33:52.226Z,85.21
2022-09-02T00:36:19.260Z,85.15
2022-09-02T00:38:46.799Z,84.94
2022-09-02T00:41:14.763Z,84.70
2022-09-02T00:43:56.862Z,84.76
2022-09-02T00:46:25.846Z,84.71
2022-09-02T00:49:06.464Z,85.09
2022-09-02T00:51:39.493Z,85.07
2022-09-02T00:54:07.803Z,84.67
2022-09-02T00:56:37.734Z,85.29
2022-09-02T00:59:05.269Z,84.73
2022-09-02T01:01:32.153Z,84.50
2022-09-02T01:03:59.124Z,85.24
2022-09-02T01:06:29.238Z,87.12
2022-09-02T01:09:02.279Z,87.87
2022-09-02T01:11:37.536Z,90.15
2022-09-02T01:14:07.156Z,91.00
2022-09-02T01:16:59.973Z,92.52
2022-09-02T01:19:34.693Z,91.13
2022-09-02T01:22:02.072Z,90.04
2022-09-02T01:24:31.383Z,89.48
2022-09-02T01:26:59.406Z,88.59
2022-09-02T01:29:28.442Z,88.23
2022-09-02T01:31:55.800Z,88.30
2022-09-02T01:34:22.917Z,88.87
2022-09-02T01:36:49.710Z,88.67
2022-09-02T01:39:16.806Z,88.52
2022-09-02T01:41:44.523Z,88.66
2022-09-02T01:44:12.339Z,88.98
2022-09-02T01:46:40.305Z,88.38
2022-09-02T01:49:07.390Z,88.38
2022-09-02T01:51:34.827Z,88.75
2022-09-02T01:54:02.783Z,88.39
2022-09-02T01:56:29.760Z,88.28
2022-09-02T01:58:59.907Z,87.97
2022-09-02T02:01:26.735Z,87.99
2022-09-02T02:03:53.929Z,88.29
2022-09-02T02:06:23.732Z,87.59
2022-09-02T02:08:52.757Z,86.49
2022-09-02T02:11:22.574Z,86.70
2022-09-02T02:13:52.335Z,86.66
2022-09-02T02:16:21.821Z,86.60
2022-09-02T02:18:48.727Z,85.94
2022-09-02T02:21:15.563Z,86.01
2022-09-02T02:23:42.366Z,85.81
2022-09-02T02:26:09.317Z,85.86
2022-09-02T02:28:37.397Z,86.23
2022-09-02T02:31:05.893Z,86.76
2022-09-02T02:33:36.187Z,87.01
2022-09-02T02:36:06.947Z,87.16
2022-09-02T02:38:36.069Z,87.20
2022-09-02T02:41:04.899Z,87.68
2022-09-02T02:43:32.420Z,87.59
2022-09-02T02:45:59.448Z,87.68
2022-09-02T02:48:26.812Z,88.36
2022-09-02T02:50:54.240Z,88.71
2022-09-02T02:53:21.440Z,89.44
2022-09-02T02:55:50.097Z,88.94
2022-09-02T02:58:18.706Z,89.05
2022-09-02T03:00:47.357Z,88.95
2022-09-02T03:03:19.697Z,89.01
2022-09-02T03:05:51.046Z,89.04
2022-09-02T03:08:21.124Z,89.09
2022-09-02T03:10:54.475Z,88.75
2022-09-02T03:13:25.102Z,88.71
2022-09-02T03:15:54.233Z,88.42
2022-09-02T03:18:22.190Z,88.05
2022-09-02T03:20:50.138Z,88.27
2022-09-02T03:23:18.908Z,88.08
2022-09-02T03:25:48.613Z,88.08
2022-09-02T03:28:24.868Z,89.33
2022-09-02T03:30:52.297Z,90.57
2022-09-02T03:33:19.274Z,92.46
2022-09-02T03:35:46.784Z,93.96
2022-09-02T03:38:14.976Z,94.92
2022-09-02T03:40:43.096Z,95.91
2022-09-02T03:43:09.963Z,96.92
2022-09-02T03:45:40.598Z,97.38
2022-09-02T03:48:12.592Z,98.02
2022-09-02T03:50:43.954Z,97.70
2022-09-02T03:53:18.366Z,98.50
2022-09-02T03:55:50.582Z,98.92
2022-09-02T03:58:19.342Z,100.00
2022-09-02T04:00:51.777Z,100.00
2022-09-02T04:03:21.180Z,100.00
2022-09-02T04:05:50.768Z,100.00
2022-09-02T04:08:19.207Z,100.00
2022-09-02T04:10:46.775Z,100.00
2022-09-02T04:13:13.715Z,100.00
2022-09-02T04:15:45.080Z,100.00
2022-09-02T04:18:12.409Z,100.00
2022-09-02T04:20:40.366Z,99.03
2022-09-02T04:23:08.121Z,98.96
2022-09-02T04:25:43.384Z,98.36
2022-09-02T04:28:14.220Z,96.32
2022-09-02T04:30:43.016Z,92.53
2022-09-02T04:33:11.861Z,86.79
2022-09-02T04:35:44.479Z,84.70
2022-09-02T04:38:12.151Z,77.25
2022-09-02T04:40:44.741Z,73.06
2022-09-02T04:43:12.547Z,73.01
2022-09-02T04:45:45.385Z,70.26
2022-09-02T04:48:15.052Z,67.28
2022-09-02T04:50:43.044Z,66.54
2022-09-02T04:53:10.494Z,62.81
2022-09-02T04:55:41.249Z,60.72
2022-09-02T04:58:11.228Z,57.24
2022-09-02T05:00:40.398Z,55.20
2022-09-02T05:03:11.854Z,52.47
2022-09-02T05:05:40.603Z,50.17
2022-09-02T05:08:10.237Z,48.32
2022-09-02T05:10:40.210Z,46.47
2022-09-02T05:13:07.237Z,45.43
2022-09-02T05:15:40.790Z,44.30
2022-09-02T05:18:08.533Z,42.25
2022-09-02T05:20:38.352Z,40.82
2022-09-02T05:23:07.021Z,39.98
2022-09-02T05:25:33.976Z,38.90
2022-09-02T05:28:00.981Z,37.78
2022-09-02T05:30:28.417Z,37.55
2022-09-02T05:32:57.230Z,36.94
2022-09-02T05:35:24.124Z,36.71
2022-09-02T05:37:54.530Z,36.42
2022-09-02T05:40:25.211Z,35.64
2022-09-02T05:42:56.660Z,34.77
2022-09-02T05:45:24.127Z,34.31
2022-09-02T05:47:52.017Z,34.40
2022-09-02T05:50:20.589Z,33.69
2022-09-02T05:52:51.467Z,34.56
2022-09-02T05:55:19.915Z,35.97
2022-09-02T05:57:47.155Z,37.33
2022-09-02T06:00:17.907Z,37.89
2022-09-02T06:02:53.518Z,37.83
2022-09-02T06:05:25.776Z,36.10
2022-09-02T06:08:05.225Z,34.59
2022-09-02T06:10:32.230Z,32.44
2022-09-02T06:12:59.986Z,31.24
2022-09-02T06:15:31.197Z,31.07
2022-09-02T06:18:00.374Z,29.85
2022-09-02T06:20:32.302Z,30.06
2022-09-02T06:22:59.970Z,28.08
2022-09-02T06:25:26.933Z,27.65
2022-09-02T06:27:53.705Z,27.00
2022-09-02T06:30:20.725Z,26.30
2022-09-02T06:32:50.468Z,25.76
2022-09-02T06:35:20.040Z,24.74
2022-09-02T06:37:47.236Z,24.88
2022-09-02T06:40:14.717Z,24.32
2022-09-02T06:42:42.559Z,23.52
2022-09-02T06:45:40.721Z,22.62
2022-09-02T06:48:09.901Z,21.73
2022-09-02T06:50:45.120Z,22.09
2022-09-02T06:53:12.786Z,21.19
2022-09-02T06:55:43.448Z,21.75
2022-09-02T06:58:12.524Z,21.45
2022-09-02T07:00:40.986Z,21.19
2022-09-02T07:03:27.467Z,20.03
2022-09-02T07:06:10.542Z,20.07
2022-09-02T07:08:44.569Z,19.76
2022-09-02T07:11:20.867Z,19.39
2022-09-02T07:13:50.175Z,19.75
2022-09-02T07:16:26.681Z,18.92
2022-09-02T07:18:56.535Z,17.53
2022-09-02T07:21:24.296Z,17.05
2022-09-02T07:23:51.260Z,17.35
2022-09-02T07:26:19.133Z,16.93
2022-09-02T07:28:47.683Z,16.88
2022-09-02T07:31:16.906Z,17.13
2022-09-02T07:33:45.043Z,17.24
2022-09-02T07:36:21.582Z,16.84
2022-09-02T07:38:48.978Z,16.24
2022-09-02T07:41:16.095Z,15.05
2022-09-02T07:43:44.227Z,15.73
2022-09-02T07:46:13.887Z,15.45
2022-09-02T07:48:42.082Z,16.00
2022-09-02T07:51:09.121Z,16.08
2022-09-02T07:53:38.015Z,15.60
2022-09-02T07:56:04.976Z,15.12
2022-09-02T07:58:32.314Z,14.54
2022-09-02T08:01:01.994Z,14.30
2022-09-02T08:03:29.140Z,14.73
2022-09-02T08:05:58.141Z,14.56
2022-09-02T08:08:27.613Z,14.25
2022-09-02T08:10:55.259Z,13.73
2022-09-02T08:13:23.100Z,13.42
2022-09-02T08:15:54.442Z,13.12
2022-09-02T08:18:22.597Z,13.26
2022-09-02T08:20:51.397Z,12.95
2022-09-02T08:23:35.511Z,13.24
2022-09-02T08:26:04.083Z,13.40
2022-09-02T08:28:32.202Z,13.29
2022-09-02T08:30:59.558Z,13.26
2022-09-02T08:33:26.586Z,13.33
2022-09-02T08:35:53.422Z,13.32
2022-09-02T08:38:22.137Z,14.33
2022-09-02T08:40:51.247Z,14.30
2022-09-02T08:43:37.471Z,14.89
2022-09-02T08:46:05.359Z,14.49
2022-09-02T08:48:40.696Z,14.43
2022-09-02T08:51:17.141Z,15.11
2022-09-02T08:53:46.734Z,16.11
2022-09-02T08:56:17.700Z,17.11
2022-09-02T08:58:47.994Z,17.58
2022-09-02T09:01:36.389Z,17.31
2022-09-02T09:04:34.814Z,16.23
2022-09-02T09:10:31.630Z,14.72
2022-09-02T09:13:13.385Z,14.21
2022-09-02T09:16:04.683Z,13.78
2022-09-02T09:18:36.979Z,13.37
2022-09-02T09:21:04.470Z,12.84
2022-09-02T09:23:34.682Z,11.90
2022-09-02T09:26:27.302Z,11.26
2022-09-02T09:28:56.220Z,11.12
2022-09-02T09:31:29.714Z,10.81
2022-09-02T09:34:11.550Z,11.08
2022-09-02T09:36:41.486Z,11.78
2022-09-02T09:39:27.151Z,12.59
2022-09-02T09:42:02.990Z,14.42
2022-09-02T09:44:38.601Z,14.73
2022-09-02T09:47:17.926Z,14.72
2022-09-02T09:49:47.186Z,14.82
2022-09-02T09:52:26.168Z,14.51
2022-09-02T09:55:24.436Z,14.86
2022-09-02T09:57:53.386Z,14.09
2022-09-02T10:00:27.133Z,14.22
2022-09-02T10:02:57.181Z,13.39
2022-09-02T10:05:26.638Z,13.28
2022-09-02T10:08:09.996Z,12.12
2022-09-02T10:11:06.486Z,12.04
2022-09-02T10:13:36.626Z,11.87
2022-09-02T10:16:28.576Z,10.92
2022-09-02T10:19:06.307Z,10.46
2022-09-02T10:21:36.142Z,10.83
2022-09-02T10:24:21.751Z,11.20
2022-09-02T10:26:53.145Z,12.05
2022-09-02T10:29:42.002Z,12.37
2022-09-02T10:32:26.414Z,13.30
2022-09-02T10:35:11.693Z,13.08
2022-09-02T10:38:05.737Z,13.11
2022-09-02T10:40:45.748Z,12.84
2022-09-02T10:43:47.926Z,12.26
2022-09-02T10:46:17.605Z,12.52
2022-09-02T10:48:44.370Z,13.02
2022-09-02T10:51:17.197Z,13.07
2022-09-02T10:54:28.589Z,12.75
2022-09-02T10:57:31.596Z,13.19
2022-09-02T11:00:15.051Z,12.57
2022-09-02T11:02:44.793Z,12.56
2022-09-02T11:05:23.426Z,11.73
2022-09-02T11:08:01.115Z,11.43
2022-09-02T11:10:42.002Z,11.36
2022-09-02T11:13:24.699Z,11.04
2022-09-02T11:16:01.905Z,11.52
2022-09-02T11:18:49.454Z,11.35
2022-09-02T11:21:40.417Z,11.44
2022-09-02T11:24:12.344Z,11.30
2022-09-02T11:26:46.399Z,11.07
2022-09-02T11:29:40.984Z,11.46
2022-09-02T11:32:17.294Z,11.33
2022-09-02T11:34:48.530Z,12.04
2022-09-02T11:37:27.829Z,11.38
2022-09-02T11:40:23.473Z,11.34
2022-09-02T11:43:14.029Z,11.73
2022-09-02T11:45:54.044Z,11.70
2022-09-02T11:48:30.121Z,11.05
2022-09-02T11:53:55.040Z,11.52
2022-09-02T11:56:30.495Z,11.85
2022-09-02T11:58:57.316Z,11.63
2022-09-02T12:01:33.268Z,11.88
2022-09-02T12:07:12.958Z,12.31
2022-09-02T12:13:03.133Z,12.19
2022-09-02T12:15:30.073Z,11.03
2022-09-02T12:17:57.441Z,11.41
2022-09-02T12:20:36.614Z,11.08
2022-09-02T12:23:04.107Z,10.64
2022-09-02T12:25:34.102Z,10.11
2022-09-02T12:28:36.325Z,10.64
2022-09-02T12:31:07.734Z,10.91
2022-09-02T12:33:37.834Z,10.75
2022-09-02T12:36:07.122Z,11.30
2022-09-02T12:38:40.256Z,11.01
2022-09-02T12:41:08.758Z,11.37
2022-09-02T12:43:44.528Z,11.21
2022-09-02T12:46:45.559Z,11.38
2022-09-02T12:49:49.074Z,12.24
2022-09-02T12:52:36.181Z,12.57
2022-09-02T12:55:13.458Z,12.63
2022-09-02T12:57:45.003Z,12.96
2022-09-02T13:00:28.436Z,12.70
2022-09-02T13:03:23.705Z,12.15
2022-09-02T13:05:58.981Z,12.38
2022-09-02T13:08:38.583Z,12.40
2022-09-02T13:11:51.172Z,12.66
2022-09-02T13:14:54.519Z,12.22
2022-09-02T13:17:36.554Z,12.08
2022-09-02T13:20:37.236Z,12.46
2022-09-02T13:23:41.123Z,11.75
2022-09-02T13:26:53.035Z,12.34
2022-09-02T13:29:50.721Z,12.74
2022-09-02T13:32:20.585Z,12.94
2022-09-02T13:34:50.964Z,12.75
2022-09-02T13:37:33.771Z,12.56
2022-09-02T13:40:23.730Z,12.64
2022-09-02T13:43:01.617Z,12.77
2022-09-02T13:45:33.224Z,12.97
2022-09-02T13:48:02.558Z,13.55
2022-09-02T13:50:31.856Z,13.49
2022-09-02T13:55:52.657Z,14.08
2022-09-02T13:58:22.480Z,14.14
2022-09-02T14:00:49.313Z,14.33
2022-09-02T14:03:23.955Z,14.85
2022-09-02T14:05:52.952Z,14.71
2022-09-02T14:08:23.767Z,15.00
2022-09-02T14:10:53.929Z,15.50
2022-09-02T14:13:22.817Z,16.27
2022-09-02T14:15:49.814Z,16.98
2022-09-02T14:18:22.110Z,17.76
2022-09-02T14:21:19.111Z,18.34
2022-09-02T14:23:51.462Z,19.21
2022-09-02T14:26:41.143Z,20.01
2022-09-02T14:29:11.790Z,20.40
2022-09-02T14:31:38.584Z,20.85
2022-09-02T14:34:51.439Z,21.53
2022-09-02T14:37:27.089Z,21.45
2022-09-02T14:40:11.675Z,22.70
2022-09-02T14:42:57.490Z,23.14
2022-09-02T14:45:27.866Z,23.60
2022-09-02T14:47:56.655Z,23.80
2022-09-02T14:50:29.008Z,24.11
2022-09-02T14:53:03.839Z,24.27
2022-09-02T14:55:54.230Z,24.47
2022-09-02T14:58:26.890Z,24.80
2022-09-02T15:00:59.582Z,25.27
2022-09-02T15:03:27.399Z,25.56
2022-09-02T15:05:54.358Z,25.69
2022-09-02T15:08:21.582Z,25.97
2022-09-02T15:10:48.992Z,26.52
2022-09-02T15:13:27.098Z,27.11
2022-09-02T15:15:55.602Z,27.32
2022-09-02T15:18:23.520Z,27.71
2022-09-02T15:20:51.187Z,28.08
2022-09-02T15:23:18.221Z,28.14
2022-09-02T15:25:45.274Z,28.60
2022-09-02T15:28:13.686Z,29.05
2022-09-02T15:30:40.798Z,29.31
2022-09-02T15:33:17.576Z,29.60
2022-09-02T15:35:48.928Z,29.75
2022-09-02T15:38:15.879Z,30.16
2022-09-02T15:40:43.548Z,30.46
2022-09-02T15:43:10.445Z,30.79
2022-09-02T15:45:45.243Z,31.16
2022-09-02T15:48:12.041Z,31.51
2022-09-02T15:50:38.907Z,31.84
2022-09-02T15:53:05.882Z,32.42
2022-09-02T15:55:33.703Z,33.07
2022-09-02T15:58:01.054Z,32.84
2022-09-02T16:00:28.647Z,33.10
2022-09-02T16:02:57.107Z,33.62
2022-09-02T16:05:24.533Z,33.98
2022-09-02T16:07:54.795Z,34.41
2022-09-02T16:10:21.616Z,34.87
2022-09-02T16:12:48.839Z,35.18
2022-09-02T16:15:15.920Z,35.61
2022-09-02T16:17:42.659Z,35.87
2022-09-02T16:20:09.750Z,36.26
2022-09-02T16:22:37.452Z,36.71
2022-09-02T16:25:04.586Z,37.12
2022-09-02T16:27:50.048Z,37.65
2022-09-02T16:30:16.886Z,37.54
2022-09-02T16:32:44.616Z,37.94
2022-09-02T16:35:11.364Z,38.32
2022-09-02T16:37:38.157Z,39.18
2022-09-02T16:40:05.722Z,39.53
2022-09-02T16:42:37.382Z,40.54
2022-09-02T16:45:05.597Z,40.71
2022-09-02T16:47:32.475Z,40.53
2022-09-02T16:49:59.238Z,40.90
2022-09-02T16:52:25.967Z,42.00
2022-09-02T16:54:52.722Z,42.46
2022-09-02T16:57:19.540Z,43.51
2022-09-02T16:59:46.270Z,42.84
2022-09-02T17:02:13.100Z,42.72
2022-09-02T17:04:39.980Z,43.25
2022-09-02T17:07:06.732Z,44.56
2022-09-02T17:09:33.538Z,44.85
2022-09-02T17:12:00.328Z,44.71
2022-09-02T17:14:27.172Z,44.82
2022-09-02T17:16:53.991Z,45.00
2022-09-02T17:19:22.339Z,45.06
2022-09-02T17:21:54.130Z,45.00
2022-09-02T17:24:23.378Z,45.94
2022-09-02T17:26:51.718Z,45.82
2022-09-02T17:29:47.469Z,46.32
2022-09-02T17:32:07.806Z,46.73
2022-09-02T17:34:34.746Z,46.87
2022-09-02T17:37:02.875Z,47.10
2022-09-02T17:39:30.554Z,47.18
2022-09-02T17:41:57.694Z,47.76
2022-09-02T17:44:27.619Z,48.06
2022-09-02T17:46:58.033Z,48.66
2022-09-02T17:49:24.815Z,48.62
2022-09-02T17:51:51.734Z,49.20
2022-09-02T17:54:19.416Z,49.68
2022-09-02T17:57:31.002Z,50.07
2022-09-02T18:00:15.621Z,50.04
2022-09-02T18:02:55.319Z,50.45
2022-09-02T18:05:32.726Z,50.22
2022-09-02T18:08:30.052Z,51.21
2022-09-02T18:11:03.032Z,51.10
2022-09-02T18:13:36.239Z,51.84
2022-09-02T18:16:23.257Z,51.63
2022-09-02T18:19:16.380Z,52.10
2022-09-02T18:22:14.652Z,53.25
2022-09-02T18:24:56.541Z,52.90
2022-09-02T18:27:43.641Z,52.70
2022-09-02T18:30:17.526Z,52.69
2022-09-02T18:33:02.836Z,53.40
2022-09-02T18:35:41.937Z,53.17
2022-09-02T18:38:46.204Z,52.95
2022-09-02T18:41:37.780Z,53.15
2022-09-02T18:44:36.168Z,53.83
2022-09-02T18:47:08.713Z,54.24
2022-09-02T18:49:37.800Z,53.98
2022-09-02T18:52:10.333Z,54.03
2022-09-02T18:54:47.620Z,53.73
2022-09-02T18:57:14.883Z,53.60
2022-09-02T19:00:09.972Z,53.37
2022-09-02T19:03:03.755Z,53.25
2022-09-02T19:05:32.624Z,53.16
2022-09-02T19:08:26.459Z,53.07
2022-09-02T19:11:01.055Z,53.09
2022-09-02T19:13:30.037Z,53.23
2022-09-02T19:16:02.118Z,53.18
2022-09-02T19:18:31.860Z,52.79
2022-09-02T19:20:59.342Z,52.97
2022-09-02T19:23:27.961Z,52.79
2022-09-02T19:25:54.753Z,52.53
2022-09-02T19:28:23.126Z,52.38
2022-09-02T19:30:53.757Z,52.40
2022-09-02T19:33:20.596Z,52.27
2022-09-02T19:35:49.856Z,52.35
2022-09-02T19:38:17.735Z,52.42
2022-09-02T19:40:49.463Z,52.72
2022-09-02T19:43:16.801Z,53.22
2022-09-02T19:45:44.294Z,53.58
2022-09-02T19:48:11.640Z,53.98
2022-09-02T19:50:42.220Z,54.11
2022-09-02T19:53:30.120Z,54.25
2022-09-02T19:55:58.676Z,54.53
2022-09-02T19:58:26.680Z,54.55
2022-09-02T20:00:57.190Z,53.99
2022-09-02T20:03:24.113Z,54.40
2022-09-02T20:05:52.861Z,54.47
2022-09-02T20:08:20.197Z,54.17
2022-09-02T20:10:56.099Z,54.28
2022-09-02T20:13:24.621Z,54.15
2022-09-02T20:15:52.867Z,54.06
2022-09-02T20:18:22.225Z,54.37
2022-09-02T20:20:51.647Z,54.46
2022-09-02T20:23:20.410Z,54.76
2022-09-02T20:26:05.107Z,54.51
2022-09-02T20:29:03.456Z,54.75
2022-09-02T20:31:50.201Z,54.82
2022-09-02T20:34:29.896Z,54.98
2022-09-02T20:37:22.307Z,55.02
2022-09-02T20:39:51.776Z,55.33
2022-09-02T20:42:52.595Z,55.67
2022-09-02T20:45:23.774Z,55.35
2022-09-02T20:48:15.388Z,55.55
2022-09-02T20:51:10.763Z,55.77
2022-09-02T20:53:46.568Z,55.83
2022-09-02T20:56:39.426Z,56.28
2022-09-02T20:59:27.697Z,56.42
2022-09-02T21:01:57.724Z,56.38
2022-09-02T21:04:24.567Z,56.76
2022-09-02T21:06:58.589Z,57.00
2022-09-02T21:09:55.646Z,57.53
2022-09-02T21:12:37.392Z,57.97
2022-09-02T21:15:51.687Z,58.52
2022-09-02T21:18:29.971Z,58.68
2022-09-02T21:21:06.896Z,58.55
2022-09-02T21:23:41.423Z,58.71
2022-09-02T21:26:18.450Z,59.06
2022-09-02T21:29:06.364Z,58.95
2022-09-02T21:31:41.876Z,59.20
2022-09-02T21:34:18.613Z,59.64
2022-09-02T21:36:46.053Z,59.81
2022-09-02T21:39:18.841Z,59.90
2022-09-02T21:41:56.460Z,60.13
2022-09-02T21:44:38.485Z,60.30
2022-09-02T21:47:23.410Z,60.70
2022-09-02T21:50:03.109Z,60.51
2022-09-02T21:52:41.913Z,60.40
2022-09-02T21:55:27.521Z,60.28
2022-09-02T21:58:22.069Z,59.85
2022-09-02T22:00:57.937Z,60.12
2022-09-02T22:03:42.511Z,59.97
2022-09-02T22:06:49.554Z,59.97
2022-09-02T22:09:26.085Z,59.86
2022-09-02T22:12:02.140Z,60.17
2022-09-02T22:14:44.187Z,60.13
2022-09-02T22:17:22.025Z,59.92
2022-09-02T22:19:56.252Z,60.76
2022-09-02T22:22:28.236Z,60.48
2022-09-02T22:24:55.491Z,61.28
2022-09-02T22:27:40.914Z,61.67
2022-09-02T22:30:15.162Z,61.39
2022-09-02T22:32:48.882Z,61.12
2022-09-02T22:35:31.531Z,60.99
2022-09-02T22:38:16.655Z,60.90
2022-09-02T22:40:49.899Z,60.97
2022-09-02T22:43:22.281Z,61.09
2022-09-02T22:46:17.451Z,61.31
2022-09-02T22:49:28.552Z,60.93
2022-09-02T22:52:45.938Z,61.22
2022-09-02T22:55:14.652Z,61.26
2022-09-02T22:58:06.254Z,61.63
2022-09-02T23:00:48.627Z,62.10
2022-09-02T23:03:21.970Z,61.96
2022-09-02T23:06:08.127Z,62.03
2022-09-02T23:08:37.924Z,61.87
2022-09-02T23:11:28.532Z,62.26
2022-09-02T23:14:26.761Z,62.16
2022-09-02T23:17:23.615Z,61.99
2022-09-02T23:20:09.048Z,62.07
2022-09-02T23:23:04.523Z,61.97
2022-09-02T23:26:03.919Z,61.39
2022-09-02T23:28:46.415Z,61.04
2022-09-02T23:31:48.575Z,61.12
2022-09-02T23:34:53.996Z,60.94
2022-09-02T23:37:48.642Z,60.78
2022-09-02T23:40:40.492Z,61.12
2022-09-02T23:43:07.974Z,60.68
2022-09-02T23:45:35.718Z,61.06
2022-09-02T23:48:20.571Z,61.06
2022-09-02T23:50:59.419Z,60.98
2022-09-02T23:53:54.042Z,61.34
2022-09-02T23:56:51.518Z,61.56
2022-09-02T23:59:45.904Z,61.75
